Republica Dominicana

METAR

SADR31 MDSD 212000Z
METAR

METAR MDPP 212000Z 00000KT 9999 FEW020 SCT300 29/25 Q1011=
METAR MDST 212000Z 14007KT 9999 FEW024 SCT300 30/22 Q1011 NOSIG=
METAR MDPC 212000Z 18010KT 9999 SCT020 SCT300 28/22 Q1012=
METAR MDBH 212000Z 13016KT 9999 FEW020CB FEW024 SCT070 29/21 Q1012
CB/S/SW=
METAR MDJB 212000Z 18010KT 9999 FEW0020 SCT080 28/23 Q1012 NOSIG=
METAR MDSD 212000Z 16004KT 9999 FEW018 SCT080 BKN300 27/21 Q1012=
METAR MDLR 212000Z 21008KT 8000 -RA BKN016 BKN070 26/23 Q1011=
METAR MDCY 212000Z 14008KT 9999 SCT025 29/24 Q1011=
METAR MDAB 212000Z 09004KT 9999 BKN018 27/24 Q1012=




Tamaño letra

Contraste

Otros